Time,TemperatureF,DewpointF,PressureIn,WindDirection,WindDirectionDegrees,WindSpeedMPH,WindSpeedGustMPH,Humidity,HourlyPrecipIn,Conditions,Clouds,dailyrainin,SoftwareType,DateUTC
2013-05-29 00:01:00,73.5,57.0,30.13,SSE,167,4.0,11.0,57,0.00,,,0.00,weatherlink.com 1.10,2013-05-29 04:01:00,
2013-05-29 00:16:00,73.1,57.0,30.13,SE,141,7.0,10.0,58,0.00,,,0.00,weatherlink.com 1.10,2013-05-29 04:16:00,
2013-05-29 00:31:00,73.0,57.0,30.13,SSW,212,6.0,11.0,58,0.00,,,0.00,weatherlink.com 1.10,2013-05-29 04:31:00,
2013-05-29 00:46:00,72.8,57.0,30.13,WSW,249,5.0,10.0,59,0.00,,,0.00,weatherlink.com 1.10,2013-05-29 04:46:00,
2013-05-29 01:01:00,72.7,58.0,30.13,WSW,248,6.0,9.0,60,0.00,,,0.00,weatherlink.com 1.10,2013-05-29 05:01:00,
2013-05-29 01:16:00,72.3,58.0,30.13,SW,218,4.0,7.0,61,0.00,,,0.00,weatherlink.com 1.10,2013-05-29 05:16:00,
2013-05-29 01:31:00,72.4,58.0,30.13,SSW,212,4.0,10.0,61,0.00,,,0.00,weatherlink.com 1.10,2013-05-29 05:31:00,
2013-05-29 01:46:00,72.4,58.0,30.13,SW,214,4.0,10.0,61,0.00,,,0.00,weatherlink.com 1.10,2013-05-29 05:46:00,
2013-05-29 02:01:00,72.0,58.0,30.14,SW,226,9.0,11.0,62,0.00,,,0.00,weatherlink.com 1.10,2013-05-29 06:01:00,
2013-05-29 02:16:00,71.0,58.0,30.14,West,277,7.0,9.0,63,0.00,,,0.00,weatherlink.com 1.10,2013-05-29 06:16:00,
2013-05-29 02:31:00,70.4,58.0,30.15,WNW,300,5.0,9.0,64,0.00,,,0.00,weatherlink.com 1.10,2013-05-29 06:31:00,
2013-05-29 02:46:00,70.2,58.0,30.15,WNW,303,5.0,8.0,65,0.00,,,0.00,weatherlink.com 1.10,2013-05-29 06:46:00,
2013-05-29 03:01:00,69.9,58.0,30.15,WNW,298,4.0,7.0,66,0.00,,,0.00,weatherlink.com 1.10,2013-05-29 07:01:00,
2013-05-29 03:16:00,69.7,59.0,30.16,NW,304,6.0,8.0,68,0.00,,,0.00,weatherlink.com 1.10,2013-05-29 07:16:00,
2013-05-29 03:31:00,69.8,59.0,30.16,WNW,297,7.0,9.0,68,0.00,,,0.00,weatherlink.com 1.10,2013-05-29 07:31:00,
2013-05-29 03:46:00,69.7,59.0,30.16,WNW,287,8.0,10.0,69,0.00,,,0.00,weatherlink.com 1.10,2013-05-29 07:46:00,
2013-05-29 04:01:00,69.9,59.0,30.17,WNW,283,8.0,9.0,69,0.00,,,0.00,weatherlink.com 1.10,2013-05-29 08:01:00,
2013-05-29 04:16:00,69.8,60.0,30.18,West,277,6.0,8.0,70,0.00,,,0.00,weatherlink.com 1.10,2013-05-29 08:16:00,
2013-05-29 04:31:00,69.6,59.0,30.17,WNW,297,5.0,8.0,70,0.00,,,0.00,weatherlink.com 1.10,2013-05-29 08:31:00,
2013-05-29 04:46:00,69.5,59.0,30.18,West,270,4.0,5.0,70,0.00,,,0.00,weatherlink.com 1.10,2013-05-29 08:46:00,
2013-05-29 05:01:00,69.4,59.0,30.17,East,99,3.0,4.0,70,0.00,,,0.00,weatherlink.com 1.10,2013-05-29 09:01:00,
2013-05-29 05:16:00,69.1,59.0,30.18,ESE,110,2.0,5.0,71,0.00,,,0.00,weatherlink.com 1.10,2013-05-29 09:16:00,
2013-05-29 05:31:00,68.3,59.0,30.18,SW,230,1.0,3.0,73,0.00,,,0.00,weatherlink.com 1.10,2013-05-29 09:31:00,
2013-05-29 05:46:00,68.2,59.0,30.19,West,268,2.0,3.0,73,0.00,,,0.00,weatherlink.com 1.10,2013-05-29 09:46:00,
2013-05-29 06:01:00,68.1,60.0,30.19,WNW,282,1.0,2.0,74,0.00,,,0.00,weatherlink.com 1.10,2013-05-29 10:01:00,
2013-05-29 06:16:00,67.6,59.0,30.19,West,272,0.0,1.0,74,0.00,,,0.00,weatherlink.com 1.10,2013-05-29 10:16:00,
2013-05-29 06:31:00,67.3,59.0,30.19,ESE,121,3.0,4.0,75,0.00,,,0.00,weatherlink.com 1.10,2013-05-29 10:31:00,
2013-05-29 06:46:00,66.7,59.0,30.20,ESE,113,4.0,7.0,76,0.00,,,0.00,weatherlink.com 1.10,2013-05-29 10:46:00,
2013-05-29 07:02:00,68.0,59.0,30.20,SSW,198,3.0,4.0,74,0.00,,,0.00,weatherlink.com 1.10,2013-05-29 11:02:00,
2013-05-29 07:17:00,68.8,59.0,30.21,SE,129,1.0,3.0,72,0.00,,,0.00,weatherlink.com 1.10,2013-05-29 11:17:00,
2013-05-29 07:32:00,70.0,60.0,30.21,SW,218,0.0,1.0,70,0.00,,,0.00,weatherlink.com 1.10,2013-05-29 11:32:00,
2013-05-29 07:47:00,70.0,59.0,30.21,East,81,1.0,3.0,68,0.00,,,0.00,weatherlink.com 1.10,2013-05-29 11:47:00,
2013-05-29 08:02:00,71.6,61.0,30.22,ESE,103,0.0,3.0,69,0.00,,,0.00,weatherlink.com 1.10,2013-05-29 12:02:00,
2013-05-29 08:17:00,70.9,61.0,30.23,East,99,2.0,4.0,70,0.00,,,0.00,weatherlink.com 1.10,2013-05-29 12:17:00,
2013-05-29 08:32:00,71.6,61.0,30.23,SE,124,1.0,4.0,70,0.00,,,0.00,weatherlink.com 1.10,2013-05-29 12:32:00,
2013-05-29 08:47:00,73.1,61.0,30.23,East,83,2.0,4.0,67,0.00,,,0.00,weatherlink.com 1.10,2013-05-29 12:47:00,
2013-05-29 09:02:00,74.7,63.0,30.23,ENE,69,1.0,3.0,66,0.00,,,0.00,weatherlink.com 1.10,2013-05-29 13:02:00,
2013-05-29 09:17:00,76.9,62.0,30.24,East,81,1.0,4.0,60,0.00,,,0.00,weatherlink.com 1.10,2013-05-29 13:17:00,
2013-05-29 09:32:00,76.5,62.0,30.25,NE,51,0.0,3.0,61,0.00,,,0.00,weatherlink.com 1.10,2013-05-29 13:32:00,
2013-05-29 09:47:00,77.8,62.0,30.25,SW,215,0.0,4.0,58,0.00,,,0.00,weatherlink.com 1.10,2013-05-29 13:47:00,
2013-05-29 10:02:00,78.6,62.0,30.25,WNW,290,2.0,4.0,58,0.00,,,0.00,weatherlink.com 1.10,2013-05-29 14:02:00,
2013-05-29 10:17:00,77.1,63.0,30.24,West,263,2.0,6.0,61,0.00,,,0.00,weatherlink.com 1.10,2013-05-29 14:17:00,
2013-05-29 10:32:00,77.9,62.0,30.24,WNW,293,2.0,8.0,59,0.00,,,0.00,weatherlink.com 1.10,2013-05-29 14:32:00,
2013-05-29 10:47:00,77.5,61.0,30.24,South,188,2.0,10.0,57,0.00,,,0.00,weatherlink.com 1.10,2013-05-29 14:47:00,
2013-05-29 11:02:00,78.2,62.0,30.24,NNW,327,1.0,12.0,57,0.00,,,0.00,weatherlink.com 1.10,2013-05-29 15:02:00,
2013-05-29 11:17:00,79.3,62.0,30.24,West,276,2.0,8.0,56,0.00,,,0.00,weatherlink.com 1.10,2013-05-29 15:17:00,
2013-05-29 11:32:00,81.1,63.0,30.24,East,94,3.0,10.0,54,0.00,,,0.00,weatherlink.com 1.10,2013-05-29 15:32:00,
2013-05-29 11:47:00,82.0,62.0,30.24,East,93,3.0,7.0,51,0.00,,,0.00,weatherlink.com 1.10,2013-05-29 15:47:00,
2013-05-29 12:02:00,82.4,62.0,30.23,West,266,3.0,10.0,50,0.00,,,0.00,weatherlink.com 1.10,2013-05-29 16:02:00,
2013-05-29 12:17:00,81.1,62.0,30.23,SW,220,5.0,14.0,52,0.00,,,0.00,weatherlink.com 1.10,2013-05-29 16:17:00,
2013-05-29 12:32:00,80.8,63.0,30.23,SSE,162,4.0,10.0,55,0.00,,,0.00,weatherlink.com 1.10,2013-05-29 16:32:00,
2013-05-29 12:47:00,81.0,63.0,30.23,WNW,285,4.0,13.0,55,0.00,,,0.00,weatherlink.com 1.10,2013-05-29 16:47:00,
2013-05-29 13:02:00,80.9,62.0,30.23,West,263,7.0,13.0,53,0.00,,,0.00,weatherlink.com 1.10,2013-05-29 17:02:00,
2013-05-29 13:17:00,83.3,64.0,30.23,SW,214,7.0,12.0,52,0.00,,,0.00,weatherlink.com 1.10,2013-05-29 17:17:00,
2013-05-29 13:32:00,83.9,64.0,30.22,West,270,0.0,7.0,52,0.00,,,0.00,weatherlink.com 1.10,2013-05-29 17:32:00,
2013-05-29 13:47:00,84.8,64.0,30.21,WSW,243,1.0,4.0,50,0.00,,,0.00,weatherlink.com 1.10,2013-05-29 17:47:00,
2013-05-29 14:02:00,85.4,62.0,30.20,East,92,6.0,8.0,46,0.00,,,0.00,weatherlink.com 1.10,2013-05-29 18:02:00,
2013-05-29 14:17:00,83.8,60.0,30.20,NE,55,1.0,8.0,44,0.00,,,0.00,weatherlink.com 1.10,2013-05-29 18:17:00,
2013-05-29 14:32:00,87.0,62.0,30.19,SSE,157,3.0,4.0,43,0.00,,,0.00,weatherlink.com 1.10,2013-05-29 18:32:00,
2013-05-29 14:47:00,86.1,60.0,30.18,ESE,116,5.0,11.0,42,0.00,,,0.00,weatherlink.com 1.10,2013-05-29 18:47:00,
2013-05-29 15:02:00,85.5,61.0,30.17,SE,127,4.0,11.0,44,0.00,,,0.00,weatherlink.com 1.10,2013-05-29 19:02:00,
2013-05-29 15:17:00,84.2,59.0,30.16,ENE,62,3.0,17.0,43,0.00,,,0.00,weatherlink.com 1.10,2013-05-29 19:17:00,
2013-05-29 15:32:00,85.3,62.0,30.15,SW,217,5.0,11.0,45,0.00,,,0.00,weatherlink.com 1.10,2013-05-29 19:32:00,
2013-05-29 15:47:00,85.0,63.0,30.15,SSE,161,9.0,11.0,47,0.00,,,0.00,weatherlink.com 1.10,2013-05-29 19:47:00,
2013-05-29 16:02:00,85.0,62.0,30.14,East,94,5.0,11.0,46,0.00,,,0.00,weatherlink.com 1.10,2013-05-29 20:02:00,
2013-05-29 16:17:00,87.0,64.0,30.15,South,172,7.0,7.0,46,0.00,,,0.00,weatherlink.com 1.10,2013-05-29 20:17:00,
2013-05-29 16:32:00,86.0,63.0,30.14,WSW,240,2.0,7.0,47,0.00,,,0.00,weatherlink.com 1.10,2013-05-29 20:32:00,
2013-05-29 16:47:00,87.2,65.0,30.14,SW,224,6.0,9.0,47,0.00,,,0.00,weatherlink.com 1.10,2013-05-29 20:47:00,
2013-05-29 17:02:00,85.7,62.0,30.14,West,276,6.0,11.0,45,0.00,,,0.00,weatherlink.com 1.10,2013-05-29 21:02:00,
2013-05-29 17:17:00,86.8,63.0,30.13,SW,221,5.0,11.0,45,0.00,,,0.00,weatherlink.com 1.10,2013-05-29 21:17:00,
2013-05-29 17:47:00,87.0,63.0,30.13,SW,234,0.0,4.0,45,0.00,,,0.00,weatherlink.com 1.10,2013-05-29 21:47:00,
2013-05-29 18:02:00,86.7,64.0,30.13,SW,224,4.0,5.0,46,0.00,,,0.00,weatherlink.com 1.10,2013-05-29 22:02:00,
2013-05-29 18:17:00,84.4,64.0,30.13,West,270,5.0,8.0,50,0.00,,,0.00,weatherlink.com 1.10,2013-05-29 22:17:00,
2013-05-29 18:32:00,84.9,64.0,30.12,South,190,1.0,6.0,49,0.00,,,0.00,weatherlink.com 1.10,2013-05-29 22:32:00,
2013-05-29 18:47:00,86.8,64.0,30.12,East,85,0.0,3.0,47,0.00,,,0.00,weatherlink.com 1.10,2013-05-29 22:47:00,
2013-05-29 19:03:00,85.8,63.0,30.12,WNW,284,5.0,7.0,47,0.00,,,0.00,weatherlink.com 1.10,2013-05-29 23:03:00,
2013-05-29 19:18:00,84.2,64.0,30.12,WNW,290,5.0,5.0,50,0.00,,,0.00,weatherlink.com 1.10,2013-05-29 23:18:00,
2013-05-29 19:33:00,84.6,63.0,30.12,SW,233,3.0,6.0,48,0.00,,,0.00,weatherlink.com 1.10,2013-05-29 23:33:00,
2013-05-29 19:48:00,84.6,63.0,30.12,West,261,3.0,4.0,49,0.00,,,0.00,weatherlink.com 1.10,2013-05-29 23:48:00,
2013-05-29 20:03:00,84.7,63.0,30.13,SW,234,3.0,4.0,48,0.00,,,0.00,weatherlink.com 1.10,2013-05-30 00:03:00,
2013-05-29 20:18:00,83.8,63.0,30.13,SW,221,3.0,6.0,49,0.00,,,0.00,weatherlink.com 1.10,2013-05-30 00:18:00,
2013-05-29 20:33:00,82.5,63.0,30.13,WSW,246,4.0,6.0,51,0.00,,,0.00,weatherlink.com 1.10,2013-05-30 00:33:00,
2013-05-29 20:48:00,81.4,62.0,30.14,ESE,113,5.0,6.0,52,0.00,,,0.00,weatherlink.com 1.10,2013-05-30 00:48:00,
2013-05-29 21:03:00,80.8,59.0,30.14,East,85,7.0,14.0,48,0.00,,,0.00,weatherlink.com 1.10,2013-05-30 01:03:00,
2013-05-29 21:18:00,80.2,58.0,30.14,SE,127,6.0,10.0,46,0.00,,,0.00,weatherlink.com 1.10,2013-05-30 01:18:00,
2013-05-29 21:33:00,79.7,57.0,30.14,SSE,162,7.0,8.0,46,0.00,,,0.00,weatherlink.com 1.10,2013-05-30 01:33:00,
2013-05-29 21:48:00,79.2,58.0,30.15,SSE,158,3.0,6.0,48,0.00,,,0.00,weatherlink.com 1.10,2013-05-30 01:48:00,
2013-05-29 22:03:00,78.5,59.0,30.15,SSE,160,3.0,7.0,52,0.00,,,0.00,weatherlink.com 1.10,2013-05-30 02:03:00,
2013-05-29 22:18:00,77.9,60.0,30.16,WSW,250,4.0,11.0,55,0.00,,,0.00,weatherlink.com 1.10,2013-05-30 02:18:00,
2013-05-29 22:33:00,77.9,59.0,30.16,West,278,9.0,18.0,52,0.00,,,0.00,weatherlink.com 1.10,2013-05-30 02:33:00,
2013-05-29 22:48:00,77.2,59.0,30.16,NW,319,6.0,14.0,53,0.00,,,0.00,weatherlink.com 1.10,2013-05-30 02:48:00,
2013-05-29 23:03:00,76.6,59.0,30.16,West,281,4.0,16.0,55,0.00,,,0.00,weatherlink.com 1.10,2013-05-30 03:03:00,
2013-05-29 23:18:00,75.8,59.0,30.16,WSW,242,5.0,13.0,56,0.00,,,0.00,weatherlink.com 1.10,2013-05-30 03:18:00,
2013-05-29 23:33:00,75.1,59.0,30.17,SW,215,5.0,10.0,57,0.00,,,0.00,weatherlink.com 1.10,2013-05-30 03:33:00,
2013-05-29 23:48:00,74.4,59.0,30.16,North,3,2.0,10.0,59,0.00,,,0.00,weatherlink.com 1.10,2013-05-30 03:48:00,